createdAt,value
2022-11-27T00:01:16.900Z,5.63
2022-11-27T00:03:46.994Z,5.49
2022-11-27T00:06:16.883Z,5.50
2022-11-27T00:08:46.561Z,5.51
2022-11-27T00:11:15.962Z,5.55
2022-11-27T00:13:43.876Z,5.43
2022-11-27T00:16:18.142Z,5.49
2022-11-27T00:18:46.679Z,5.50
2022-11-27T00:21:17.606Z,5.35
2022-11-27T00:23:46.003Z,5.43
2022-11-27T00:26:15.890Z,5.50
2022-11-27T00:28:43.794Z,5.47
2022-11-27T00:31:17.641Z,5.45
2022-11-27T00:33:55.225Z,5.40
2022-11-27T00:36:25.838Z,5.41
2022-11-27T00:38:54.356Z,5.36
2022-11-27T00:41:27.455Z,5.33
2022-11-27T00:43:55.922Z,5.30
2022-11-27T00:46:29.034Z,5.30
2022-11-27T00:48:57.546Z,5.19
2022-11-27T00:51:26.837Z,5.23
2022-11-27T00:53:55.527Z,5.20
2022-11-27T00:56:25.451Z,5.27
2022-11-27T00:58:54.350Z,5.18
2022-11-27T01:01:26.100Z,5.20
2022-11-27T01:03:54.488Z,5.14
2022-11-27T01:06:22.551Z,5.19
2022-11-27T01:08:50.757Z,5.18
2022-11-27T01:11:20.577Z,5.10
2022-11-27T01:13:49.545Z,5.10
2022-11-27T01:16:20.469Z,5.07
2022-11-27T01:18:51.546Z,5.08
2022-11-27T01:21:20.987Z,5.03
2022-11-27T01:23:50.303Z,5.04
2022-11-27T01:26:20.011Z,4.98
2022-11-27T01:28:48.485Z,4.89
2022-11-27T01:31:21.117Z,4.94
2022-11-27T01:33:54.825Z,4.90
2022-11-27T01:36:23.043Z,4.96
2022-11-27T01:38:51.354Z,4.99
2022-11-27T01:41:23.257Z,4.92
2022-11-27T01:43:56.278Z,4.90
2022-11-27T01:46:34.955Z,4.94
2022-11-27T01:49:25.962Z,4.94
2022-11-27T01:52:04.499Z,4.83
2022-11-27T01:54:35.722Z,4.85
2022-11-27T01:57:08.063Z,4.78
2022-11-27T01:59:37.822Z,4.78
2022-11-27T02:02:05.923Z,4.77
2022-11-27T02:04:36.395Z,4.81
2022-11-27T02:07:04.665Z,4.80
2022-11-27T02:09:45.204Z,4.85
2022-11-27T02:12:25.125Z,4.82
2022-11-27T02:15:04.004Z,4.90
2022-11-27T02:17:38.755Z,5.01
2022-11-27T02:20:21.382Z,4.93
2022-11-27T02:23:10.460Z,4.93
2022-11-27T02:25:49.572Z,4.94
2022-11-27T02:28:38.641Z,4.98
2022-11-27T02:31:15.851Z,4.96
2022-11-27T02:33:47.576Z,4.95
2022-11-27T02:36:20.661Z,4.99
2022-11-27T02:38:55.430Z,4.92
2022-11-27T02:41:30.144Z,4.96
2022-11-27T02:43:59.860Z,5.00
2022-11-27T02:46:30.491Z,5.07
2022-11-27T02:49:03.618Z,5.11
2022-11-27T02:51:39.317Z,5.06
2022-11-27T02:54:15.281Z,5.07
2022-11-27T02:56:47.528Z,5.12
2022-11-27T02:59:19.009Z,5.14
2022-11-27T03:01:53.705Z,5.19
2022-11-27T03:04:27.735Z,5.18
2022-11-27T03:07:00.272Z,5.25
2022-11-27T03:09:40.062Z,5.21
2022-11-27T03:12:11.090Z,5.28
2022-11-27T03:14:40.539Z,5.25
2022-11-27T03:17:22.016Z,5.23
2022-11-27T03:19:54.669Z,5.34
2022-11-27T03:22:23.007Z,5.30
2022-11-27T03:24:51.178Z,5.34
2022-11-27T03:27:27.879Z,5.35
2022-11-27T03:29:59.557Z,5.33
2022-11-27T03:32:31.593Z,5.34
2022-11-27T03:34:59.985Z,5.36
2022-11-27T03:37:28.857Z,5.36
2022-11-27T03:39:56.906Z,5.30
2022-11-27T03:42:30.444Z,5.32
2022-11-27T03:45:09.132Z,5.36
2022-11-27T03:47:47.509Z,5.37
2022-11-27T03:50:29.025Z,5.39
2022-11-27T03:53:11.889Z,5.36
2022-11-27T03:55:50.139Z,5.35
2022-11-27T03:58:24.911Z,5.38
2022-11-27T04:00:54.064Z,5.35
2022-11-27T04:03:28.821Z,5.38
2022-11-27T04:05:57.202Z,5.35
2022-11-27T04:08:25.483Z,5.35
2022-11-27T04:10:53.717Z,5.34
2022-11-27T04:13:21.743Z,5.38
2022-11-27T04:15:49.905Z,5.39
2022-11-27T04:18:19.415Z,5.40
2022-11-27T04:20:50.293Z,5.43
2022-11-27T04:23:22.446Z,5.40
2022-11-27T04:25:52.574Z,5.38
2022-11-27T04:28:20.792Z,5.36
2022-11-27T04:30:53.321Z,5.39
2022-11-27T04:33:21.559Z,5.38
2022-11-27T04:35:50.979Z,5.35
2022-11-27T04:38:20.298Z,5.39
2022-11-27T04:40:49.425Z,5.40
2022-11-27T04:43:19.881Z,5.40
2022-11-27T04:45:48.931Z,5.40
2022-11-27T04:48:16.935Z,5.41
2022-11-27T04:50:44.825Z,5.34
2022-11-27T04:53:14.295Z,5.36
2022-11-27T04:55:45.342Z,5.40
2022-11-27T04:58:13.508Z,5.43
2022-11-27T05:00:41.795Z,5.42
2022-11-27T05:03:09.909Z,5.27
2022-11-27T05:05:38.384Z,5.34
2022-11-27T05:08:06.471Z,5.30
2022-11-27T05:10:35.942Z,5.37
2022-11-27T05:13:03.798Z,5.37
2022-11-27T05:15:31.908Z,5.33
2022-11-27T05:17:59.829Z,5.33
2022-11-27T05:20:27.676Z,5.33
2022-11-27T05:22:55.627Z,5.37
2022-11-27T05:25:23.942Z,5.36
2022-11-27T05:27:55.489Z,5.34
2022-11-27T05:30:25.942Z,5.31
2022-11-27T05:32:54.000Z,5.25
2022-11-27T05:35:21.909Z,5.26
2022-11-27T05:37:49.849Z,5.28
2022-11-27T05:40:17.782Z,5.33
2022-11-27T05:42:45.581Z,5.31
2022-11-27T05:45:15.694Z,5.33
2022-11-27T05:47:43.511Z,5.36
2022-11-27T05:50:12.613Z,5.31
2022-11-27T05:52:40.883Z,5.25
2022-11-27T05:55:09.598Z,5.31
2022-11-27T05:57:37.648Z,5.31
2022-11-27T06:00:07.374Z,5.34
2022-11-27T06:02:42.053Z,5.33
2022-11-27T06:05:23.226Z,5.32
2022-11-27T06:07:51.376Z,5.33
2022-11-27T06:10:21.538Z,5.33
2022-11-27T06:12:49.572Z,5.29
2022-11-27T06:15:17.867Z,5.27
2022-11-27T06:17:49.493Z,5.26
2022-11-27T06:20:17.565Z,5.27
2022-11-27T06:22:56.724Z,5.26
2022-11-27T06:25:25.282Z,5.19
2022-11-27T06:27:53.841Z,5.27
2022-11-27T06:30:24.283Z,5.30
2022-11-27T06:32:53.642Z,5.26
2022-11-27T06:35:21.640Z,5.21
2022-11-27T06:37:49.582Z,5.26
2022-11-27T06:40:17.718Z,5.27
2022-11-27T06:42:45.715Z,5.25
2022-11-27T06:45:17.258Z,5.27
2022-11-27T06:47:47.368Z,5.17
2022-11-27T06:50:16.840Z,5.28
2022-11-27T06:52:45.239Z,5.26
2022-11-27T06:55:14.132Z,5.22
2022-11-27T06:57:42.016Z,5.22
2022-11-27T07:00:12.680Z,5.21
2022-11-27T07:02:41.875Z,5.22
2022-11-27T07:05:17.065Z,5.20
2022-11-27T07:07:44.974Z,5.21
2022-11-27T07:10:17.729Z,5.24
2022-11-27T07:12:46.586Z,5.31
2022-11-27T07:15:16.578Z,5.30
2022-11-27T07:17:45.843Z,5.29
2022-11-27T07:20:17.221Z,5.27
2022-11-27T07:22:52.230Z,5.38
2022-11-27T07:25:24.085Z,5.32
2022-11-27T07:27:52.255Z,5.36
2022-11-27T07:30:20.998Z,5.34
2022-11-27T07:32:50.139Z,5.34
2022-11-27T07:35:27.114Z,5.31
2022-11-27T07:37:56.820Z,5.33
2022-11-27T07:40:30.558Z,5.30
2022-11-27T07:43:11.567Z,5.30
2022-11-27T07:45:39.549Z,5.32
2022-11-27T07:48:18.818Z,5.37
2022-11-27T07:50:48.561Z,5.28
2022-11-27T07:53:20.372Z,5.29
2022-11-27T07:55:49.921Z,5.36
2022-11-27T07:58:25.267Z,5.40
2022-11-27T08:00:53.259Z,5.51
2022-11-27T08:03:24.298Z,5.53
2022-11-27T08:05:52.522Z,5.57
2022-11-27T08:08:24.388Z,5.65
2022-11-27T08:10:53.453Z,5.64
2022-11-27T08:13:37.568Z,5.64
2022-11-27T08:16:06.578Z,5.50
2022-11-27T08:18:39.190Z,5.71
2022-11-27T08:21:13.516Z,5.74
2022-11-27T08:23:43.072Z,5.53
2022-11-27T08:26:14.476Z,5.64
2022-11-27T08:28:43.077Z,5.57
2022-11-27T08:31:35.861Z,5.70
2022-11-27T08:34:04.371Z,5.55
2022-11-27T08:36:32.865Z,5.69
2022-11-27T08:39:02.606Z,5.55
2022-11-27T08:41:30.964Z,5.70
2022-11-27T08:43:59.237Z,5.69
2022-11-27T08:46:32.300Z,5.72
2022-11-27T08:49:01.089Z,5.79
2022-11-27T08:51:29.736Z,5.73
2022-11-27T08:54:06.457Z,5.75
2022-11-27T08:56:39.441Z,5.75
2022-11-27T08:59:09.655Z,5.74
2022-11-27T09:01:37.707Z,5.74
2022-11-27T09:04:06.921Z,5.79
2022-11-27T09:06:36.329Z,5.77
2022-11-27T09:09:07.314Z,5.79
2022-11-27T09:11:36.422Z,5.78
2022-11-27T09:14:06.144Z,5.82
2022-11-27T09:16:41.752Z,5.91
2022-11-27T09:19:12.801Z,5.91
2022-11-27T09:21:41.480Z,5.94
2022-11-27T09:24:11.941Z,5.95
2022-11-27T09:26:44.864Z,5.98
2022-11-27T09:29:14.967Z,5.98
2022-11-27T09:31:43.882Z,6.01
2022-11-27T09:34:12.899Z,5.94
2022-11-27T09:36:42.246Z,5.88
2022-11-27T09:39:28.658Z,5.90
2022-11-27T09:41:59.213Z,5.79
2022-11-27T09:44:35.486Z,5.78
2022-11-27T09:47:14.931Z,5.80
2022-11-27T09:50:20.006Z,5.76
2022-11-27T09:52:57.835Z,5.71
2022-11-27T09:55:34.376Z,5.60
2022-11-27T09:58:06.904Z,5.60
2022-11-27T10:00:38.201Z,5.57
2022-11-27T10:03:09.570Z,5.57
2022-11-27T10:06:04.319Z,5.57
2022-11-27T10:08:51.528Z,5.52
2022-11-27T10:11:35.323Z,5.50
2022-11-27T10:14:33.890Z,5.53
2022-11-27T10:17:09.748Z,5.54
2022-11-27T10:20:07.815Z,5.51
2022-11-27T10:22:47.202Z,5.55
2022-11-27T10:25:20.878Z,5.53
2022-11-27T10:28:03.725Z,5.57
2022-11-27T10:30:46.969Z,5.58
2022-11-27T10:33:32.679Z,5.58
2022-11-27T10:36:14.884Z,5.43
2022-11-27T10:38:45.407Z,5.52
2022-11-27T10:41:48.864Z,5.61
2022-11-27T10:44:30.936Z,5.49
2022-11-27T10:47:03.914Z,5.57
2022-11-27T10:49:32.760Z,5.63
2022-11-27T10:52:01.670Z,5.55
2022-11-27T10:54:36.923Z,5.70
2022-11-27T11:00:35.006Z,5.71
2022-11-27T11:03:18.325Z,5.80
2022-11-27T11:08:49.429Z,5.71
2022-11-27T11:11:40.344Z,5.70
2022-11-27T11:14:23.834Z,5.74
2022-11-27T11:16:54.137Z,5.71
2022-11-27T11:19:30.252Z,5.74
2022-11-27T11:22:14.838Z,5.76
2022-11-27T11:24:47.955Z,5.74
2022-11-27T11:27:21.471Z,5.66
2022-11-27T11:30:26.983Z,5.77
2022-11-27T11:33:03.806Z,5.70
2022-11-27T11:35:40.935Z,5.77
2022-11-27T11:38:30.079Z,5.79
2022-11-27T11:41:18.937Z,5.83
2022-11-27T11:44:19.630Z,5.85
2022-11-27T11:46:56.098Z,5.83
2022-11-27T11:50:41.352Z,5.88
2022-11-27T11:53:29.063Z,5.93
2022-11-27T11:56:18.871Z,5.91
2022-11-27T11:58:59.477Z,5.84
2022-11-27T12:01:54.742Z,5.97
2022-11-27T12:04:57.462Z,5.99
2022-11-27T12:07:50.480Z,6.06
2022-11-27T12:10:30.891Z,6.06
2022-11-27T12:13:33.034Z,6.09
2022-11-27T12:16:14.606Z,6.11
2022-11-27T12:19:04.330Z,6.14
2022-11-27T12:21:51.010Z,6.09
2022-11-27T12:24:49.705Z,6.05
2022-11-27T12:27:37.911Z,6.04
2022-11-27T12:30:14.365Z,6.04
2022-11-27T12:33:14.367Z,6.04
2022-11-27T12:35:45.882Z,6.08
2022-11-27T12:38:38.083Z,6.07
2022-11-27T12:41:29.616Z,6.04
2022-11-27T12:44:01.016Z,6.07
2022-11-27T12:46:37.714Z,6.08
2022-11-27T12:49:16.740Z,6.06
2022-11-27T12:51:48.854Z,6.15
2022-11-27T12:54:31.047Z,6.14
2022-11-27T12:57:02.724Z,6.08
2022-11-27T12:59:43.933Z,6.07
2022-11-27T13:02:30.239Z,6.17
2022-11-27T13:05:03.773Z,5.99
2022-11-27T13:07:40.322Z,6.00
2022-11-27T13:10:21.801Z,5.99
2022-11-27T13:12:56.263Z,5.98
2022-11-27T13:15:36.201Z,5.94
2022-11-27T13:18:15.063Z,5.96
2022-11-27T13:20:48.224Z,6.00
2022-11-27T13:23:21.569Z,6.00
2022-11-27T13:25:54.410Z,5.93
2022-11-27T13:28:28.328Z,5.96
2022-11-27T13:31:02.738Z,5.98
2022-11-27T13:33:42.809Z,6.00
2022-11-27T13:36:22.275Z,6.01
2022-11-27T13:39:00.203Z,5.95
2022-11-27T13:41:35.439Z,5.98
2022-11-27T13:44:07.673Z,5.95
2022-11-27T13:46:48.559Z,5.93
2022-11-27T13:49:27.399Z,5.93
2022-11-27T13:52:07.241Z,5.97
2022-11-27T13:54:35.274Z,5.81
2022-11-27T13:57:14.840Z,5.84
2022-11-27T13:59:43.281Z,5.89
2022-11-27T14:02:13.005Z,5.71
2022-11-27T14:04:54.488Z,5.86
2022-11-27T14:07:25.463Z,5.79
2022-11-27T14:09:56.292Z,5.71
2022-11-27T14:12:26.732Z,5.81
2022-11-27T14:15:05.023Z,5.77
2022-11-27T14:17:52.498Z,5.72
2022-11-27T14:20:25.136Z,5.79
2022-11-27T14:23:11.135Z,5.75
2022-11-27T14:25:42.266Z,5.77
2022-11-27T14:28:16.715Z,5.73
2022-11-27T14:30:49.012Z,5.71
2022-11-27T14:33:24.014Z,5.63
2022-11-27T14:35:54.352Z,5.66
2022-11-27T14:38:22.912Z,5.61
2022-11-27T14:40:53.326Z,5.59
2022-11-27T14:43:25.928Z,5.54
2022-11-27T14:45:55.907Z,5.62
2022-11-27T14:48:42.104Z,5.46
2022-11-27T14:51:15.154Z,5.46
2022-11-27T14:54:04.285Z,5.54
2022-11-27T14:56:36.185Z,5.55
2022-11-27T14:59:04.837Z,5.57
2022-11-27T15:01:34.627Z,5.53
2022-11-27T15:04:06.039Z,5.52
2022-11-27T15:06:37.676Z,5.55
2022-11-27T15:09:30.724Z,5.52
2022-11-27T15:11:56.637Z,5.49
2022-11-27T15:14:26.624Z,5.47
2022-11-27T15:16:55.186Z,5.40
2022-11-27T15:19:30.455Z,5.50
2022-11-27T15:21:59.910Z,5.50
2022-11-27T15:24:35.241Z,5.33
2022-11-27T15:27:25.143Z,5.50
2022-11-27T15:30:11.715Z,5.53
2022-11-27T15:32:51.484Z,5.56
2022-11-27T15:35:28.053Z,5.57
2022-11-27T15:37:57.813Z,5.59
2022-11-27T15:40:31.784Z,5.62
2022-11-27T15:43:01.082Z,5.62
2022-11-27T15:45:31.890Z,5.63
2022-11-27T15:48:01.319Z,5.64
2022-11-27T15:50:31.740Z,5.63
2022-11-27T15:53:01.407Z,5.62
2022-11-27T15:55:30.717Z,5.63
2022-11-27T15:57:59.767Z,5.69
2022-11-27T16:00:27.801Z,5.71
2022-11-27T16:02:56.955Z,5.75
2022-11-27T16:05:24.989Z,5.78
2022-11-27T16:07:55.536Z,5.78
2022-11-27T16:10:23.751Z,5.74
2022-11-27T16:12:55.653Z,5.73
2022-11-27T16:15:26.684Z,5.74
2022-11-27T16:17:57.933Z,5.77
2022-11-27T16:20:26.378Z,5.75
2022-11-27T16:22:55.882Z,5.74
2022-11-27T16:25:25.225Z,5.69
2022-11-27T16:27:56.690Z,5.75
2022-11-27T16:30:27.325Z,5.75
2022-11-27T16:32:55.583Z,5.69
2022-11-27T16:35:23.517Z,5.74
2022-11-27T16:37:51.723Z,5.71
2022-11-27T16:40:24.210Z,5.71
2022-11-27T16:42:52.282Z,5.73
2022-11-27T16:45:20.462Z,5.74
2022-11-27T16:47:48.291Z,5.76
2022-11-27T16:50:16.271Z,5.76
2022-11-27T16:52:44.770Z,5.76
2022-11-27T16:55:13.482Z,5.75
2022-11-27T16:57:43.850Z,5.74
2022-11-27T17:00:12.208Z,5.75
2022-11-27T17:02:40.704Z,5.73
2022-11-27T17:05:09.334Z,5.79
2022-11-27T17:07:37.385Z,5.81
2022-11-27T17:10:05.903Z,5.75
2022-11-27T17:12:34.365Z,5.78
2022-11-27T17:15:03.571Z,5.78
2022-11-27T17:17:36.826Z,5.77
2022-11-27T17:20:10.006Z,5.82
2022-11-27T17:22:39.057Z,5.79
2022-11-27T17:25:14.391Z,5.80
2022-11-27T17:27:42.645Z,5.77
2022-11-27T17:30:12.622Z,5.84
2022-11-27T17:32:40.472Z,5.83
2022-11-27T17:35:10.559Z,5.83
2022-11-27T17:37:43.606Z,5.83
2022-11-27T17:40:12.591Z,5.84
2022-11-27T17:42:44.636Z,5.86
2022-11-27T17:45:14.138Z,5.91
2022-11-27T17:47:41.977Z,5.91
2022-11-27T17:50:11.329Z,5.88
2022-11-27T17:52:41.254Z,5.94
2022-11-27T17:55:09.589Z,5.91
2022-11-27T17:57:38.497Z,5.88
2022-11-27T18:00:08.939Z,5.92
2022-11-27T18:02:38.163Z,5.93
2022-11-27T18:05:09.082Z,5.98
2022-11-27T18:07:39.158Z,5.99
2022-11-27T18:10:08.647Z,6.00
2022-11-27T18:12:37.943Z,5.98
2022-11-27T18:15:10.008Z,6.02
2022-11-27T18:17:42.366Z,5.91
2022-11-27T18:20:10.695Z,5.95
2022-11-27T18:22:38.777Z,5.96
2022-11-27T18:25:07.319Z,6.00
2022-11-27T18:27:35.539Z,5.93
2022-11-27T18:30:05.202Z,5.98
2022-11-27T18:32:35.620Z,5.97
2022-11-27T18:35:15.666Z,5.93
2022-11-27T18:37:43.512Z,5.94
2022-11-27T18:40:14.066Z,5.94
2022-11-27T18:42:42.005Z,5.96
2022-11-27T18:45:31.938Z,5.97
2022-11-27T18:47:59.351Z,5.89
2022-11-27T18:50:31.734Z,5.89
2022-11-27T18:52:59.561Z,5.89
2022-11-27T18:55:27.977Z,5.90
2022-11-27T18:57:55.969Z,5.92
2022-11-27T19:00:30.112Z,5.89
2022-11-27T19:02:58.140Z,5.86
2022-11-27T19:05:27.342Z,5.83
2022-11-27T19:08:08.974Z,5.83
2022-11-27T19:10:37.073Z,5.88
2022-11-27T19:13:05.091Z,5.91
2022-11-27T19:15:37.056Z,5.86
2022-11-27T19:18:05.297Z,5.86
2022-11-27T19:20:38.020Z,5.85
2022-11-27T19:23:32.049Z,5.90
2022-11-27T19:26:06.566Z,5.82
2022-11-27T19:28:34.527Z,5.86
2022-11-27T19:31:05.786Z,5.85
2022-11-27T19:33:35.053Z,5.91
2022-11-27T19:36:05.449Z,5.85
2022-11-27T19:38:34.913Z,5.85
2022-11-27T19:41:04.740Z,5.85
2022-11-27T19:43:32.708Z,5.90
2022-11-27T19:46:01.597Z,5.86
2022-11-27T19:48:29.449Z,5.88
2022-11-27T19:51:02.443Z,5.84
2022-11-27T19:53:30.388Z,5.84
2022-11-27T19:55:59.693Z,5.84
2022-11-27T19:58:29.748Z,5.86
2022-11-27T20:01:06.320Z,5.81
2022-11-27T20:03:35.925Z,5.77
2022-11-27T20:06:06.370Z,5.81
2022-11-27T20:08:35.213Z,5.84
2022-11-27T20:11:07.183Z,5.81
2022-11-27T20:13:37.292Z,5.81
2022-11-27T20:16:08.264Z,5.80
2022-11-27T20:18:40.457Z,5.80
2022-11-27T20:21:11.375Z,5.79
2022-11-27T20:23:41.298Z,5.80
2022-11-27T20:26:14.139Z,5.83
2022-11-27T20:28:50.693Z,5.82
2022-11-27T20:31:25.507Z,5.80
2022-11-27T20:33:58.840Z,5.83
2022-11-27T20:36:30.390Z,5.81
2022-11-27T20:39:01.268Z,5.79
2022-11-27T20:41:30.746Z,5.80
2022-11-27T20:44:00.366Z,5.80
2022-11-27T20:46:29.463Z,5.79
2022-11-27T20:48:58.678Z,5.82
2022-11-27T20:51:30.249Z,5.72
2022-11-27T20:53:59.551Z,5.81
2022-11-27T20:56:28.598Z,5.75
2022-11-27T20:58:58.718Z,5.80
2022-11-27T21:01:29.750Z,5.81
2022-11-27T21:04:00.380Z,5.78
2022-11-27T21:06:31.289Z,5.77
2022-11-27T21:09:01.261Z,5.78
2022-11-27T21:11:32.939Z,5.80
2022-11-27T21:14:05.145Z,5.77
2022-11-27T21:16:35.697Z,5.76
2022-11-27T21:19:07.322Z,5.78
2022-11-27T21:21:35.922Z,5.81
2022-11-27T21:24:03.823Z,5.78
2022-11-27T21:26:31.838Z,5.77
2022-11-27T21:28:59.770Z,5.75
2022-11-27T21:31:34.542Z,5.77
2022-11-27T21:34:07.112Z,5.81
2022-11-27T21:36:37.880Z,5.76
2022-11-27T21:39:08.382Z,5.77
2022-11-27T21:41:37.505Z,5.79
2022-11-27T21:44:06.698Z,5.73
2022-11-27T21:46:36.357Z,5.75
2022-11-27T21:49:04.347Z,5.73
2022-11-27T21:51:32.400Z,5.74
2022-11-27T21:54:00.899Z,5.68
2022-11-27T21:56:32.287Z,5.73
2022-11-27T21:59:01.209Z,5.73
2022-11-27T22:01:29.501Z,5.73
2022-11-27T22:03:59.110Z,5.73
2022-11-27T22:06:30.652Z,5.70
2022-11-27T22:09:00.335Z,5.70
2022-11-27T22:11:30.399Z,5.73
2022-11-27T22:13:59.407Z,5.67
2022-11-27T22:16:32.860Z,5.70
2022-11-27T22:19:03.125Z,5.63
2022-11-27T22:21:32.406Z,5.62
2022-11-27T22:24:01.108Z,5.65
2022-11-27T22:26:29.590Z,5.63
2022-11-27T22:28:58.610Z,5.65
2022-11-27T22:31:29.688Z,5.67
2022-11-27T22:34:00.805Z,5.62
2022-11-27T22:36:31.704Z,5.64
2022-11-27T22:39:01.364Z,5.64
2022-11-27T22:41:30.839Z,5.63
2022-11-27T22:44:00.328Z,5.63
2022-11-27T22:46:33.379Z,5.57
2022-11-27T22:49:03.769Z,5.59
2022-11-27T22:51:35.298Z,5.60
2022-11-27T22:54:03.957Z,5.62
2022-11-27T22:56:33.735Z,5.59
2022-11-27T22:59:30.355Z,5.58
2022-11-27T23:01:50.138Z,5.60
2022-11-27T23:04:17.966Z,5.59
2022-11-27T23:06:48.559Z,5.57
2022-11-27T23:09:17.786Z,5.55
2022-11-27T23:11:46.306Z,5.57
2022-11-27T23:14:14.578Z,5.56
2022-11-27T23:16:42.676Z,5.58
2022-11-27T23:19:10.863Z,5.60
2022-11-27T23:21:39.981Z,5.59
2022-11-27T23:24:13.280Z,5.59
2022-11-27T23:26:41.059Z,5.57
2022-11-27T23:29:10.385Z,5.57
2022-11-27T23:31:39.222Z,5.56
2022-11-27T23:34:09.666Z,5.50
2022-11-27T23:36:38.635Z,5.56
2022-11-27T23:39:08.340Z,5.53
2022-11-27T23:41:39.650Z,5.55
2022-11-27T23:44:08.066Z,5.54
2022-11-27T23:46:35.947Z,5.51
2022-11-27T23:49:03.846Z,5.50
2022-11-27T23:51:33.498Z,5.50
2022-11-27T23:54:02.166Z,5.53
2022-11-27T23:56:34.266Z,5.54
2022-11-27T23:59:12.450Z,5.55
